Pagrindinis puslapis
METAR-TAF:

METAR-TAF

Oro uostai :

Thoothukudi, Indija

platuma: 8-43-27N, ilguma: 78-01-33E, Aukštis: 39 m

Dabartinis oras

Ataskaita buvo paskelbta 20 minutes, ne 05:00 UTC
Vėjas 12 kt iš Vakarų/Šiaurės Vakarų
Temperatūra 34°C
Drėgmė 50%
Slėgis 1007 hPa
Matomumas: 7000 m
Mažai debesys ne aukštis 1800 ft

METAR: VOTK 140500Z 29012KT 7000 FEW018 34/22 Q1007 NOSIG

Laikas: 10:50 (05:20 UTC)


TAF: trūkstamas

Orai ataskaitas ir orų prognozės (METAR, TAF).

turimą stotys yra geltonos ir raudonos taškus žemėlapyje.

Perkelti pele per norėdami pamatyti stoties vardą.

Tada spustelėkite, norėdami matyti oro stebėjimo ir prognozės.

Norėdami pakeisti žemėlapį: spustelėkite ant žalios mygtukų su juodo kryžiaus žemyn,; žalią mygtuką su brūkšneliu, jei norite nutolinti; arba žalių rodyklių gretimoms žemėlapius.


METAR-TAF: